Time;durP1;ratioP1;P1;durP2;ratioP2;P2;SDS_P1;SDS_P2;PMS_P1;PMS_P2;Temp;Humidity;BMP_temperature;BMP_pressure;BME280_temperature;BME280_humidity;BME280_pressure;Samples;Min_cycle;Max_cycle;Signal;HPM_P1;HPM_P2
2022/01/26 00:07:18;;;;;;;19.17;11.60;;;;;;;3.13;83.98;102418.63;5062677;28;20204;-81
2022/01/26 00:09:45;;;;;;;20.37;10.83;;;;;;;3.11;83.98;102421.25;5063710;28;20244;-81
2022/01/26 00:12:12;;;;;;;23.33;10.90;;;;;;;3.11;83.35;102421.25;5065014;28;20205;-81
2022/01/26 00:14:41;;;;;;;20.70;11.57;;;;;;;3.09;83.27;102420.38;5065031;28;20208;-81
2022/01/26 00:17:11;;;;;;;21.43;11.57;;;;;;;3.08;83.62;102420.38;5064411;28;20233;-81
2022/01/26 00:19:49;;;;;;;18.27;11.03;;;;;;;3.05;83.65;102418.63;5064377;28;20213;-81
2022/01/26 00:22:35;;;;;;;19.63;10.70;;;;;;;3.04;83.72;102421.31;5062228;28;20193;-81
2022/01/26 00:25:20;;;;;;;23.37;11.93;;;;;;;3.02;83.42;102420.44;5057462;28;20205;-81
2022/01/26 00:27:52;;;;;;;18.13;9.30;;;;;;;3.00;83.02;102422.19;5065622;28;20232;-81
2022/01/26 00:38:42;;;;;;;20.43;10.67;;;;;;;2.96;83.54;102413.41;5064150;28;20211;-81
2022/01/26 00:41:13;;;;;;;17.20;10.27;;;;;;;2.96;83.12;102420.44;5065462;28;20215;-81
2022/01/26 00:43:43;;;;;;;22.40;11.63;;;;;;;2.94;83.02;102417.81;5064753;28;20259;-81
2022/01/26 00:46:10;;;;;;;20.87;11.20;;;;;;;2.95;83.01;102419.56;5064755;28;20248;-81
2022/01/26 00:48:38;;;;;;;22.97;11.57;;;;;;;2.96;82.66;102421.31;5064408;28;20214;-81
2022/01/26 00:51:06;;;;;;;27.93;12.97;;;;;;;2.97;83.22;102414.28;5063823;28;20209;-81
2022/01/26 00:53:38;;;;;;;25.80;12.80;;;;;;;2.96;83.59;102418.69;5063833;28;20216;-81
2022/01/26 00:56:05;;;;;;;26.80;13.43;;;;;;;2.95;82.69;102403.78;5062254;28;20229;-81
2022/01/26 00:58:32;;;;;;;21.33;11.33;;;;;;;2.96;83.25;102396.75;5064094;28;20586;-81
2022/01/26 01:01:01;;;;;;;24.97;12.83;;;;;;;2.94;83.73;102390.63;5063462;28;20582;-81
2022/01/26 01:03:29;;;;;;;21.20;12.23;;;;;;;2.95;83.32;102397.63;5060416;28;20216;-81
2022/01/26 01:06:01;;;;;;;23.40;13.00;;;;;;;2.93;83.52;102395.00;5062385;28;20264;-81
2022/01/26 01:08:27;;;;;;;24.80;13.17;;;;;;;2.93;83.25;102391.50;5061410;28;20243;-81
2022/01/26 01:10:56;;;;;;;25.90;13.27;;;;;;;2.93;83.48;102392.38;5062296;28;20555;-80
2022/01/26 01:13:32;;;;;;;28.53;13.13;;;;;;;2.93;83.55;102389.75;5060305;28;20197;-80
2022/01/26 01:15:59;;;;;;;23.93;12.70;;;;;;;2.92;83.77;102385.34;5060290;28;20225;-80
2022/01/26 01:18:33;;;;;;;24.50;11.53;;;;;;;2.93;83.44;102395.00;5059848;28;20237;-80
2022/01/26 01:21:33;;;;;;;18.87;11.13;;;;;;;2.91;83.62;102391.50;5060519;28;20204;-81
2022/01/26 01:24:24;;;;;;;21.57;11.23;;;;;;;2.91;83.38;102386.25;5060563;28;20214;-80
2022/01/26 01:29:37;;;;;;;23.37;11.60;;;;;;;2.90;83.77;102400.28;5037657;28;20244;-80
2022/01/26 01:32:12;;;;;;;20.10;10.17;;;;;;;2.90;84.13;102394.13;5060232;28;20212;-81
2022/01/26 01:34:39;;;;;;;18.20;10.40;;;;;;;2.87;83.94;102388.88;5060984;28;20209;-80
2022/01/26 01:37:09;;;;;;;17.87;10.37;;;;;;;2.85;84.09;102391.53;5060552;28;20707;-80
2022/01/26 01:39:37;;;;;;;18.67;10.70;;;;;;;2.84;83.87;102391.56;5062419;28;20205;-80
2022/01/26 01:42:06;;;;;;;17.37;9.47;;;;;;;2.84;83.83;102394.19;5061225;28;20273;-80
2022/01/26 01:44:33;;;;;;;22.27;12.40;;;;;;;2.83;83.65;102390.66;5060802;28;20205;-80
2022/01/26 01:47:00;;;;;;;23.03;13.57;;;;;;;2.84;83.52;102388.91;5060397;28;20232;-80
2022/01/26 01:49:26;;;;;;;30.37;13.53;;;;;;;2.83;83.80;102390.66;5060526;28;20292;-80
2022/01/26 01:51:57;;;;;;;29.80;14.23;;;;;;;2.84;83.55;102392.44;5062502;28;20276;-80
2022/01/26 01:54:25;;;;;;;39.17;15.40;;;;;;;2.85;83.86;102388.03;5061489;28;20676;-80
2022/01/26 01:56:56;;;;;;;32.70;15.27;;;;;;;2.86;84.31;102387.16;5060693;28;20252;-80
2022/01/26 01:59:23;;;;;;;26.73;13.47;;;;;;;2.84;84.06;102381.03;5058902;28;20617;-80
2022/01/26 02:01:50;;;;;;;22.63;12.20;;;;;;;2.84;84.57;102379.25;5059574;28;20205;-80
2022/01/26 02:04:16;;;;;;;27.37;12.83;;;;;;;2.83;84.00;102368.75;5059150;28;20233;-80
2022/01/26 02:06:43;;;;;;;24.67;12.63;;;;;;;2.82;83.74;102367.88;5060492;28;20308;-80
2022/01/26 02:09:11;;;;;;;27.33;13.33;;;;;;;2.80;84.53;102367.00;5059535;28;20209;-80
2022/01/26 02:11:46;;;;;;;26.83;12.13;;;;;;;2.78;84.29;102364.38;5052341;28;20206;-80
2022/01/26 02:14:19;;;;;;;19.40;10.17;;;;;;;2.77;84.06;102357.34;5050296;28;20208;-80
2022/01/26 02:16:51;;;;;;;20.93;10.53;;;;;;;2.76;84.52;102360.00;5048801;28;20248;-80
2022/01/26 02:19:53;;;;;;;20.53;10.63;;;;;;;2.74;84.19;102352.09;5050832;28;20225;-80
2022/01/26 02:50:13;;;;;;;23.10;9.70;;;;;;;2.64;84.39;102318.84;5066101;28;20208;-80
2022/01/26 02:52:52;;;;;;;17.73;10.03;;;;;;;2.64;84.36;102318.84;5065628;28;20216;-79
2022/01/26 02:55:33;;;;;;;17.77;9.63;;;;;;;2.65;84.64;102324.97;5064892;28;20233;-79
2022/01/26 02:58:24;;;;;;;24.07;11.00;;;;;;;2.64;84.21;102317.97;5065234;28;20202;-80
2022/01/26 03:01:02;;;;;;;22.77;11.83;;;;;;;2.64;84.68;102307.44;5065630;28;20202;-80
2022/01/26 03:03:33;;;;;;;24.13;11.27;;;;;;;2.65;84.92;102303.94;5061801;23;20287;-72
2022/01/26 03:06:04;;;;;;;30.53;13.40;;;;;;;2.63;84.61;102306.56;5030736;28;20672;-70
2022/01/26 03:08:34;;;;;;;30.80;14.97;;;;;;;2.65;84.58;102310.06;5030006;28;20649;-72
2022/01/26 03:11:07;;;;;;;36.87;15.53;;;;;;;2.64;84.74;102303.06;5030991;28;20198;-68
2022/01/26 03:13:36;;;;;;;34.90;15.27;;;;;;;2.65;84.54;102301.28;5029366;28;20284;-70
2022/01/26 03:16:09;;;;;;;34.93;15.73;;;;;;;2.65;84.70;102296.91;5032098;28;20226;-75
2022/01/26 03:21:38;;;;;;;38.03;16.30;;;;;;;2.64;85.00;102297.78;5090433;27;20575;-70
2022/01/26 03:29:56;;;;;;;34.80;15.43;;;;;;;2.64;85.17;102270.59;5070531;28;20212;-70
2022/01/26 03:35:14;;;;;;;30.27;14.27;;;;;;;2.59;84.99;102275.88;5063042;28;20229;-71
2022/01/26 03:37:51;;;;;;;37.83;14.07;;;;;;;2.58;84.69;102276.75;5065580;28;20208;-69
2022/01/26 03:40:17;;;;;;;35.23;15.00;;;;;;;2.58;85.13;102275.88;5073228;28;20274;-69
2022/01/26 03:42:44;;;;;;;36.03;16.33;;;;;;;2.58;84.71;102289.91;5085305;28;20263;-71
2022/01/26 03:45:11;;;;;;;33.10;14.90;;;;;;;2.57;85.62;102290.78;5076758;28;20208;-70
2022/01/26 03:47:37;;;;;;;36.17;16.50;;;;;;;2.55;85.26;102289.03;5047571;28;20210;-69
2022/01/26 03:50:05;;;;;;;39.90;17.37;;;;;;;2.54;85.26;102282.91;5054840;28;20198;-72
2022/01/26 03:52:31;;;;;;;47.67;17.93;;;;;;;2.54;84.85;102288.16;5060623;28;20602;-70
2022/01/26 03:54:59;;;;;;;43.70;18.20;;;;;;;2.55;85.70;102286.41;5065660;28;20196;-71
2022/01/26 03:57:25;;;;;;;44.47;17.63;;;;;;;2.54;85.24;102290.81;5064782;28;20216;-70
2022/01/26 03:59:52;;;;;;;41.47;18.37;;;;;;;2.54;85.22;102298.69;5058578;28;20713;-70
2022/01/26 04:02:18;;;;;;;38.47;16.57;;;;;;;2.54;85.61;102288.16;5066418;28;20239;-70
2022/01/26 04:04:55;;;;;;;40.70;16.83;;;;;;;2.55;85.40;102296.94;5064959;28;20210;-71
2022/01/26 04:07:22;;;;;;;38.93;17.10;;;;;;;2.54;85.19;102298.69;5048904;28;20209;-70
2022/01/26 04:09:49;;;;;;;37.50;15.63;;;;;;;2.55;85.72;102310.97;5067183;28;20582;-70
2022/01/26 04:12:17;;;;;;;37.20;15.87;;;;;;;2.55;85.25;102315.34;5070240;28;20776;-74
2022/01/26 04:14:49;;;;;;;36.47;15.93;;;;;;;2.53;85.70;102322.38;5065643;28;20546;-70
2022/01/26 04:17:16;;;;;;;38.23;16.87;;;;;;;2.51;84.85;102325.00;5071186;28;20678;-70
2022/01/26 04:19:44;;;;;;;33.93;15.83;;;;;;;2.51;84.90;102318.91;5065949;28;20233;-70
2022/01/26 04:22:16;;;;;;;37.50;16.43;;;;;;;2.50;85.53;102302.25;5052556;28;20240;-70
2022/01/26 04:24:47;;;;;;;37.50;17.27;;;;;;;2.51;84.83;102311.84;5069837;28;20205;-70
2022/01/26 04:27:20;;;;;;;41.13;18.10;;;;;;;2.51;84.77;102313.63;5046089;28;20296;-70
2022/01/26 04:29:49;;;;;;;37.33;15.77;;;;;;;2.51;85.32;102319.75;5067383;28;20256;-71
2022/01/26 04:32:17;;;;;;;42.30;17.77;;;;;;;2.51;85.32;102326.78;5053269;28;20236;-71
2022/01/26 04:34:44;;;;;;;39.40;16.33;;;;;;;2.52;85.34;102328.50;5053090;28;20659;-70
2022/01/26 04:37:19;;;;;;;41.67;17.17;;;;;;;2.52;85.04;102317.97;5054710;28;20865;-68
2022/01/26 04:39:50;;;;;;;39.23;17.47;;;;;;;2.49;85.23;102311.00;5057346;28;20227;-71
2022/01/26 04:42:23;;;;;;;44.10;18.33;;;;;;;2.49;85.09;102303.13;5053780;28;20623;-70
2022/01/26 04:44:57;;;;;;;46.83;20.27;;;;;;;2.47;85.36;102291.72;5061771;28;20209;-71
2022/01/26 04:47:24;;;;;;;47.07;19.23;;;;;;;2.47;85.48;102293.47;5059848;28;20263;-71
2022/01/26 04:49:50;;;;;;;46.90;18.00;;;;;;;2.46;85.25;102300.50;5042203;28;20205;-70
2022/01/26 04:52:17;;;;;;;54.37;21.03;;;;;;;2.45;84.45;102282.97;5057852;28;20225;-70
2022/01/26 04:54:43;;;;;;;52.40;19.57;;;;;;;2.44;84.68;102274.19;5050141;28;20585;-70
2022/01/26 04:57:10;;;;;;;56.27;20.83;;;;;;;2.44;84.72;102281.22;5060410;28;20582;-70
2022/01/26 04:59:36;;;;;;;51.33;20.27;;;;;;;2.43;85.23;102274.19;5055118;28;20388;-70
2022/01/26 05:02:04;;;;;;;53.43;19.50;;;;;;;2.42;85.23;102282.97;5063069;28;20217;-71
2022/01/26 05:04:31;;;;;;;53.30;20.60;;;;;;;2.39;85.29;102264.56;5051284;28;20666;-70
2022/01/26 05:06:57;;;;;;;51.60;18.93;;;;;;;2.37;84.82;102263.69;5034995;28;20213;-71
2022/01/26 05:09:24;;;;;;;50.87;18.73;;;;;;;2.37;85.21;102268.97;5036926;28;20753;-70
2022/01/26 05:11:53;;;;;;;46.70;18.90;;;;;;;2.35;85.09;102273.34;5040429;28;20214;-71
2022/01/26 05:14:20;;;;;;;51.30;20.10;;;;;;;2.34;84.68;102271.59;5058364;28;20228;-69
2022/01/26 05:16:47;;;;;;;50.03;19.03;;;;;;;2.34;84.96;102297.88;5048079;28;20272;-70
2022/01/26 05:19:15;;;;;;;54.53;20.63;;;;;;;2.33;85.17;102285.66;5053813;28;20197;-70
2022/01/26 05:21:42;;;;;;;51.10;20.43;;;;;;;2.31;84.89;102288.28;5059571;28;20312;-69
2022/01/26 05:24:10;;;;;;;48.10;18.10;;;;;;;2.30;84.74;102285.66;5045386;28;20211;-69
2022/01/26 05:26:37;;;;;;;48.47;18.63;;;;;;;2.29;85.03;102284.78;5045925;28;20198;-69
2022/01/26 05:29:04;;;;;;;54.53;18.17;;;;;;;2.28;85.30;102293.53;5046934;28;20210;-70
2022/01/26 05:31:30;;;;;;;47.70;18.27;;;;;;;2.28;84.94;102276.91;5058803;28;21708;-70
2022/01/26 05:33:57;;;;;;;53.03;19.07;;;;;;;2.27;84.66;102268.13;5050544;28;20206;-74
2022/01/26 05:36:25;;;;;;;48.93;19.20;;;;;;;2.26;85.27;102268.13;5039046;28;20205;-70
2022/01/26 05:38:52;;;;;;;54.27;17.73;;;;;;;2.24;84.97;102262.88;5044035;28;20201;-70
2022/01/26 05:41:18;;;;;;;51.30;17.53;;;;;;;2.22;84.55;102267.25;5051784;28;20229;-70
2022/01/26 05:43:45;;;;;;;42.97;16.80;;;;;;;2.21;84.40;102268.13;5041938;28;20590;-70
2022/01/26 05:46:16;;;;;;;42.37;17.03;;;;;;;2.19;85.14;102266.38;5044355;28;20296;-69
2022/01/26 05:48:45;;;;;;;48.63;17.33;;;;;;;2.17;84.46;102266.41;5045985;28;20210;-70
2022/01/26 05:51:12;;;;;;;51.33;17.83;;;;;;;2.17;85.08;102265.53;5043502;28;20205;-73
2022/01/26 05:53:41;;;;;;;51.83;17.10;;;;;;;2.15;84.61;102251.53;5044905;28;20721;-70
2022/01/26 05:56:09;;;;;;;49.13;19.20;;;;;;;2.12;84.36;102256.78;5048584;28;20201;-74
2022/01/26 05:58:36;;;;;;;52.30;18.47;;;;;;;2.09;84.51;102250.66;5050387;28;20221;-70
2022/01/26 06:01:03;;;;;;;55.53;18.03;;;;;;;2.09;84.47;102242.78;5049833;28;20225;-71
2022/01/26 06:03:30;;;;;;;53.27;18.30;;;;;;;2.09;84.73;102247.16;5042740;28;20226;-71
2022/01/26 06:05:57;;;;;;;52.80;17.43;;;;;;;2.08;84.73;102243.66;5047440;28;20663;-72
2022/01/26 06:08:24;;;;;;;54.70;19.20;;;;;;;2.09;84.43;102252.41;5048651;28;20208;-70
2022/01/26 06:10:55;;;;;;;52.30;18.30;;;;;;;2.08;84.56;102241.03;5045458;28;20198;-70
2022/01/26 06:13:21;;;;;;;59.77;19.37;;;;;;;2.07;84.94;102244.53;5044208;28;20593;-72
2022/01/26 06:15:48;;;;;;;52.80;17.93;;;;;;;2.05;84.97;102230.53;5040037;28;20668;-70
2022/01/26 06:18:14;;;;;;;63.77;20.53;;;;;;;2.03;84.87;102247.16;5046276;28;20225;-69
2022/01/26 06:20:41;;;;;;;54.07;18.63;;;;;;;2.02;84.38;102243.66;5047231;28;20221;-70
2022/01/26 06:23:08;;;;;;;62.07;20.73;;;;;;;2.03;84.34;102237.53;5049813;28;20225;-70
2022/01/26 06:25:34;;;;;;;63.93;21.30;;;;;;;2.01;84.27;102241.91;5045061;28;20200;-70
2022/01/26 06:28:07;;;;;;;58.57;20.23;;;;;;;2.00;84.88;102239.28;5040475;28;20577;-71
2022/01/26 06:30:34;;;;;;;54.93;17.80;;;;;;;2.01;84.22;102251.56;5053112;28;20580;-70
2022/01/26 06:33:01;;;;;;;57.57;18.30;;;;;;;2.00;84.22;102245.41;5045213;28;20236;-71
2022/01/26 06:35:28;;;;;;;62.67;19.10;;;;;;;2.00;84.67;102236.66;5051352;28;20718;-69
2022/01/26 06:37:55;;;;;;;59.77;19.73;;;;;;;1.96;84.34;102238.44;5047567;28;20208;-73
2022/01/26 06:40:23;;;;;;;64.73;20.23;;;;;;;1.95;84.61;102244.56;5047700;28;20232;-70
2022/01/26 06:42:53;;;;;;;64.47;21.83;;;;;;;1.94;84.55;102234.94;5040954;28;20254;-70
2022/01/26 06:45:24;;;;;;;69.97;23.33;;;;;;;1.97;84.16;102236.69;5048364;28;20236;-70
2022/01/26 06:48:00;;;;;;;67.90;21.50;;;;;;;1.97;84.68;102236.69;5043702;28;20210;-71
2022/01/26 06:50:26;;;;;;;59.30;19.53;;;;;;;1.97;84.66;102253.31;5046544;28;20208;-71
2022/01/26 06:52:53;;;;;;;56.27;19.47;;;;;;;1.97;84.38;102248.06;5043102;28;20218;-71
2022/01/26 06:55:21;;;;;;;61.87;20.30;;;;;;;1.97;84.62;102241.94;5048231;28;20654;-70
2022/01/26 06:57:48;;;;;;;59.53;17.77;;;;;;;1.98;84.72;102239.28;5046123;28;20197;-70
2022/01/26 07:00:15;;;;;;;68.97;20.77;;;;;;;1.97;85.14;102248.06;5046653;28;20229;-71
2022/01/26 07:02:43;;;;;;;61.03;20.40;;;;;;;1.98;84.65;102249.81;5049985;28;20304;-70
2022/01/26 07:05:12;;;;;;;57.37;19.73;;;;;;;1.98;84.64;102248.94;5046802;28;20205;-70
2022/01/26 07:07:39;;;;;;;62.97;20.00;;;;;;;1.95;84.47;102252.47;5048446;28;20205;-72
2022/01/26 07:10:07;;;;;;;63.40;20.13;;;;;;;1.95;84.75;102255.09;5045306;28;20202;-71
2022/01/26 07:12:34;;;;;;;61.17;20.27;;;;;;;1.95;84.67;102268.22;5045798;28;20225;-70
2022/01/26 07:23:15;;;;;;;62.00;20.87;;;;;;;1.99;84.58;102274.31;5041703;28;20251;-70
2022/01/26 07:25:41;;;;;;;61.03;20.70;;;;;;;2.00;84.82;102262.94;5046726;28;20581;-71
2022/01/26 07:28:08;;;;;;;68.33;20.10;;;;;;;1.99;84.73;102253.31;5041844;28;20199;-70
2022/01/26 07:30:35;;;;;;;73.87;21.07;;;;;;;1.98;85.06;102246.28;5046047;28;20205;-69
2022/01/26 07:33:04;;;;;;;63.53;21.03;;;;;;;1.97;85.19;102231.44;5039610;28;20229;-70
2022/01/26 07:35:31;;;;;;;70.67;22.13;;;;;;;1.95;84.72;102205.16;5047671;28;20629;-71
2022/01/26 07:37:59;;;;;;;64.20;20.80;;;;;;;1.95;85.15;102194.66;5040424;28;20216;-70
2022/01/26 07:40:26;;;;;;;70.43;21.87;;;;;;;1.93;85.52;102200.78;5042341;28;20207;-70
2022/01/26 07:42:53;;;;;;;68.80;22.10;;;;;;;1.92;85.22;102210.44;5038161;28;20222;-70
2022/01/26 07:45:20;;;;;;;70.87;23.33;;;;;;;1.93;84.87;102221.81;5046478;28;20291;-71
2022/01/26 07:47:51;;;;;;;78.57;23.50;;;;;;;1.94;85.00;102224.44;5039512;28;20210;-70
2022/01/26 07:50:20;;;;;;;70.00;23.23;;;;;;;1.95;84.71;102222.69;5045763;28;20220;-71
2022/01/26 07:52:47;;;;;;;77.20;24.33;;;;;;;1.93;85.39;102227.94;5037356;28;20225;-69
2022/01/26 07:55:17;;;;;;;60.30;21.33;;;;;;;1.90;85.01;102233.19;5039479;28;20198;-70
2022/01/26 07:57:45;;;;;;;68.93;22.50;;;;;;;1.90;85.30;102227.06;5045582;28;20732;-70
2022/01/26 08:00:12;;;;;;;71.10;22.13;;;;;;;1.88;85.15;102236.69;5037201;28;20280;-70
2022/01/26 08:02:39;;;;;;;74.30;22.40;;;;;;;1.86;84.99;102230.56;5035734;28;20233;-71
2022/01/26 08:05:06;;;;;;;55.80;21.00;;;;;;;1.86;85.11;102241.97;5041348;28;20202;-69
2022/01/26 08:07:35;;;;;;;64.77;21.40;;;;;;;1.86;85.04;102238.47;5041306;28;20214;-72
2022/01/26 08:10:02;;;;;;;59.20;20.17;;;;;;;1.86;85.05;102235.81;5046892;28;20202;-71
2022/01/26 08:12:28;;;;;;;67.97;21.47;;;;;;;1.83;85.10;102238.47;5043629;28;20222;-71
2022/01/26 08:14:55;;;;;;;72.80;24.60;;;;;;;1.82;85.38;102248.09;5050251;28;20201;-72
2022/01/26 08:17:21;;;;;;;74.87;22.30;;;;;;;1.81;85.63;102229.69;5051469;28;20216;-71
2022/01/26 08:19:51;;;;;;;84.80;27.27;;;;;;;1.77;85.22;102236.75;5043059;28;20304;-70
2022/01/26 08:22:19;;;;;;;87.87;25.57;;;;;;;1.76;84.98;102235.00;5047551;28;20236;-72
2022/01/26 08:24:48;;;;;;;81.67;24.90;;;;;;;1.78;85.53;102243.75;5050394;28;20558;-71
2022/01/26 08:27:17;;;;;;;84.30;25.77;;;;;;;1.77;85.35;102242.00;5049217;28;20202;-70
2022/01/26 08:29:47;;;;;;;87.40;27.77;;;;;;;1.78;85.11;102250.75;5044108;28;20206;-71
2022/01/26 08:32:14;;;;;;;94.20;27.77;;;;;;;1.78;85.59;102256.88;5051021;28;20229;-72
2022/01/26 08:34:41;;;;;;;94.33;28.50;;;;;;;1.80;85.49;102257.72;5047763;28;20577;-71
2022/01/26 08:37:08;;;;;;;85.60;27.50;;;;;;;1.82;84.82;102239.31;5049867;28;20213;-71
2022/01/26 08:39:36;;;;;;;94.80;27.73;;;;;;;1.80;85.26;102252.47;5053206;28;20208;-71
2022/01/26 08:42:06;;;;;;;82.57;25.70;;;;;;;1.82;84.74;102257.72;5042294;28;20232;-71
2022/01/26 08:44:32;;;;;;;94.20;27.63;;;;;;;1.83;84.61;102246.34;5045433;28;20204;-71
2022/01/26 08:46:59;;;;;;;98.17;29.07;;;;;;;1.84;85.42;102254.22;5053461;28;20209;-71
2022/01/26 08:49:27;;;;;;;92.20;29.40;;;;;;;1.85;84.80;102255.09;5047502;28;20221;-70
2022/01/26 08:51:54;;;;;;;109.50;35.53;;;;;;;1.86;85.42;102252.47;5055216;28;20312;-70
2022/01/26 08:54:22;;;;;;;105.73;32.80;;;;;;;1.88;85.60;102262.97;5051033;28;20206;-69
2022/01/26 08:56:49;;;;;;;109.70;35.30;;;;;;;1.88;84.98;102257.72;5046675;28;20255;-70
2022/01/26 08:59:17;;;;;;;98.50;33.47;;;;;;;1.88;85.45;102255.97;5049003;28;20210;-70
2022/01/26 09:01:44;;;;;;;102.60;31.70;;;;;;;1.89;84.96;102246.34;5053508;28;20858;-70
2022/01/26 09:04:10;;;;;;;103.53;31.43;;;;;;;1.87;84.72;102254.22;5048746;28;20208;-71
2022/01/26 09:06:49;;;;;;;97.33;32.10;;;;;;;1.88;84.69;102261.22;5045729;28;20198;-70
2022/01/26 09:09:16;;;;;;;102.57;31.97;;;;;;;1.89;85.40;102265.59;5044672;28;20548;-70
2022/01/26 09:11:42;;;;;;;112.17;32.40;;;;;;;1.87;85.11;102264.72;5047126;28;20215;-70
2022/01/26 09:14:16;;;;;;;114.07;33.67;;;;;;;1.87;85.16;102263.84;5050561;28;20562;-71
2022/01/26 09:16:44;;;;;;;113.73;33.80;;;;;;;1.86;85.05;102252.47;5044678;28;20260;-71
2022/01/26 09:19:23;;;;;;;104.17;33.43;;;;;;;1.86;85.05;102236.69;5045099;28;20209;-73
2022/01/26 09:21:49;;;;;;;118.63;36.30;;;;;;;1.87;85.36;102253.34;5045895;28;20240;-71
2022/01/26 09:24:16;;;;;;;119.07;36.77;;;;;;;1.87;85.36;102246.34;5044399;28;20210;-71
2022/01/26 09:26:42;;;;;;;118.73;38.07;;;;;;;1.87;84.67;102255.97;5046097;28;20213;-73
2022/01/26 09:29:09;;;;;;;114.87;37.03;;;;;;;1.86;85.33;102267.34;5045646;28;20205;-70
2022/01/26 09:31:36;;;;;;;114.03;37.40;;;;;;;1.85;85.61;102266.47;5044846;28;20201;-70
2022/01/26 09:34:04;;;;;;;108.27;37.47;;;;;;;1.84;85.35;102269.97;5040506;28;20248;-70
2022/01/26 09:36:31;;;;;;;114.03;35.67;;;;;;;1.83;85.22;102277.84;5048131;28;20220;-70
2022/01/26 09:38:58;;;;;;;105.93;36.60;;;;;;;1.81;84.80;102282.25;5041599;28;20263;-70
2022/01/26 09:41:25;;;;;;;109.50;35.83;;;;;;;1.80;84.54;102276.09;5039089;28;20745;-68
2022/01/26 09:43:51;;;;;;;114.70;38.57;;;;;;;1.78;85.35;102285.78;5046576;28;20247;-71
2022/01/26 09:46:18;;;;;;;112.93;34.70;;;;;;;1.77;84.54;102273.50;5046014;28;20220;-70
2022/01/26 09:48:44;;;;;;;106.30;37.17;;;;;;;1.76;84.95;102278.75;5053508;28;20202;-71
2022/01/26 09:51:15;;;;;;;112.37;34.73;;;;;;;1.76;84.44;102277.00;5041176;28;20802;-70
2022/01/26 09:53:42;;;;;;;111.03;34.53;;;;;;;1.77;84.19;102280.50;5045615;28;20256;-69
2022/01/26 09:56:08;;;;;;;103.97;35.37;;;;;;;1.77;84.13;102285.78;5052807;28;20547;-70
2022/01/26 09:58:36;;;;;;;100.90;34.43;;;;;;;1.77;84.32;102289.28;5045360;28;20206;-70
2022/01/26 10:01:05;;;;;;;102.47;32.80;;;;;;;1.76;84.02;102291.91;5045469;28;20205;-70
2022/01/26 10:03:34;;;;;;;102.83;34.30;;;;;;;1.75;84.52;102288.41;5041489;28;20598;-70
2022/01/26 10:06:01;;;;;;;94.50;33.37;;;;;;;1.76;84.15;102292.78;5043017;28;20197;-70
2022/01/26 10:19:43;;;;;;;110.37;33.67;;;;;;;1.79;84.39;102311.16;5041464;28;20225;-70
2022/01/26 10:22:10;;;;;;;115.13;35.07;;;;;;;1.80;83.87;102305.00;5040653;28;20226;-70
2022/01/26 10:24:38;;;;;;;107.27;33.40;;;;;;;1.81;84.23;102305.88;5041079;28;20201;-70
2022/01/26 10:27:04;;;;;;;113.70;36.17;;;;;;;1.83;84.47;102306.75;5042614;28;20199;-70
2022/01/26 10:29:33;;;;;;;127.10;43.17;;;;;;;1.84;84.25;102311.13;5042459;28;20689;-70
2022/01/26 10:32:11;;;;;;;111.67;35.83;;;;;;;1.82;84.14;102313.75;5043144;28;20256;-71
2022/01/26 10:34:38;;;;;;;95.80;29.83;;;;;;;1.82;84.45;102308.50;5040090;28;20205;-70
2022/01/26 10:37:04;;;;;;;106.30;31.60;;;;;;;1.81;83.80;102301.50;5041725;28;20221;-74
2022/01/26 10:39:36;;;;;;;102.07;31.30;;;;;;;1.78;83.84;102295.41;5048507;28;20745;-70
2022/01/26 10:42:11;;;;;;;101.33;31.03;;;;;;;1.77;84.28;102294.53;5041521;28;20234;-70
2022/01/26 10:44:42;;;;;;;102.53;31.87;;;;;;;1.77;84.41;102293.66;5053757;28;20200;-71
2022/01/26 10:47:10;;;;;;;112.27;34.30;;;;;;;1.76;84.33;102281.38;5039860;28;20297;-71
2022/01/26 10:49:56;;;;;;;97.63;33.83;;;;;;;1.75;83.87;102288.41;5047299;28;20205;-70
2022/01/26 10:52:32;;;;;;;106.83;36.23;;;;;;;1.77;84.57;102305.03;5046117;28;20224;-70
2022/01/26 10:54:59;;;;;;;109.07;33.30;;;;;;;1.79;83.80;102307.66;5035587;28;20209;-70
2022/01/26 10:57:27;;;;;;;105.03;33.03;;;;;;;1.80;84.33;102297.13;5054708;28;20203;-71
2022/01/26 10:59:53;;;;;;;104.07;32.67;;;;;;;1.81;84.27;102298.00;5060238;28;20209;-71
2022/01/26 11:02:25;;;;;;;107.53;31.90;;;;;;;1.83;84.22;102291.88;5049201;28;20229;-71
2022/01/26 11:04:52;;;;;;;104.67;32.70;;;;;;;1.87;83.75;102284.88;5047362;28;20684;-71
2022/01/26 11:07:19;;;;;;;114.10;33.53;;;;;;;1.90;84.04;102292.75;5029176;28;20218;-70
2022/01/26 11:09:47;;;;;;;92.20;29.47;;;;;;;1.92;84.05;102286.63;5034836;28;20205;-70
2022/01/26 11:12:16;;;;;;;115.63;33.70;;;;;;;1.95;84.55;102288.38;5038294;28;20222;-70
2022/01/26 11:14:46;;;;;;;104.87;31.33;;;;;;;1.96;84.09;102274.34;5042490;28;20298;-71
2022/01/26 11:17:26;;;;;;;101.37;31.37;;;;;;;1.97;83.80;102276.94;5043986;28;20216;-71
2022/01/26 11:19:53;;;;;;;104.23;32.07;;;;;;;1.99;84.07;102263.81;5042699;28;20213;-70
2022/01/26 11:22:26;;;;;;;107.57;33.17;;;;;;;1.96;84.41;102261.22;5039882;28;20237;-71
2022/01/26 11:24:53;;;;;;;102.00;32.73;;;;;;;1.97;83.91;102265.59;5043010;28;20272;-69
2022/01/26 11:27:20;;;;;;;101.37;30.27;;;;;;;1.99;83.72;102250.69;5041647;28;20202;-70
2022/01/26 11:29:53;;;;;;;104.83;31.50;;;;;;;1.98;83.71;102260.31;5041577;28;20576;-71
2022/01/26 11:32:27;;;;;;;98.80;30.30;;;;;;;1.99;83.94;102254.19;5044676;28;20230;-72
2022/01/26 11:34:55;;;;;;;104.93;32.13;;;;;;;2.00;83.47;102248.03;5040700;28;20314;-71
2022/01/26 11:37:35;;;;;;;112.00;32.37;;;;;;;1.98;83.96;102252.44;5047591;28;20210;-70
2022/01/26 11:45:34;;;;;;;104.80;31.57;;;;;;;1.95;83.23;102257.72;5048756;28;20198;-71
2022/01/26 11:48:03;;;;;;;97.87;30.97;;;;;;;1.95;83.36;102255.09;5046265;28;20198;-71
2022/01/26 11:50:31;;;;;;;107.43;33.53;;;;;;;1.95;82.91;102249.84;5039450;28;20285;-70
2022/01/26 11:53:00;;;;;;;97.03;29.90;;;;;;;1.94;83.39;102245.47;5044907;28;20225;-71
2022/01/26 11:55:32;;;;;;;105.53;33.50;;;;;;;1.95;83.39;102243.69;5044683;28;20502;-74
2022/01/26 11:58:14;;;;;;;108.17;31.83;;;;;;;1.96;82.93;102238.44;5052131;28;20204;-71
2022/01/26 12:00:49;;;;;;;105.17;33.13;;;;;;;1.98;82.71;102231.41;5043610;28;20202;-71
2022/01/26 12:03:31;;;;;;;101.53;32.73;;;;;;;2.02;82.57;102232.28;5038469;28;20233;-71
2022/01/26 12:05:59;;;;;;;109.10;32.13;;;;;;;2.02;83.42;102233.16;5043365;28;20202;-72
2022/01/26 12:08:31;;;;;;;108.00;31.83;;;;;;;2.05;82.68;102227.91;5044064;28;20210;-71
2022/01/26 12:10:58;;;;;;;100.53;32.07;;;;;;;2.11;82.38;102223.50;5043414;28;22008;-71
2022/01/26 12:13:27;;;;;;;104.37;32.23;;;;;;;2.06;82.86;102219.13;5050010;28;20733;-72
2022/01/26 12:15:58;;;;;;;99.00;31.30;;;;;;;2.08;82.53;102201.63;5052186;28;20288;-71
2022/01/26 12:18:32;;;;;;;103.87;33.53;;;;;;;2.06;82.50;102198.13;5046965;28;20624;-71
2022/01/26 12:32:39;;;;;;;111.90;33.40;;;;;;;2.09;82.62;102160.44;5047812;28;20655;-70
2022/01/26 12:35:19;;;;;;;106.90;33.73;;;;;;;2.08;82.52;102158.69;5049244;28;20208;-71
2022/01/26 12:38:00;;;;;;;110.73;33.83;;;;;;;2.06;82.83;102152.56;5047292;28;20592;-72
2022/01/26 12:43:17;;;;;;;109.80;35.13;;;;;;;2.05;82.45;102135.03;5041685;28;20741;-71
2022/01/26 12:45:45;;;;;;;109.60;31.77;;;;;;;2.01;82.13;102144.69;5042315;28;20667;-71
2022/01/26 12:48:14;;;;;;;112.83;34.47;;;;;;;2.03;82.76;102142.94;5039849;28;20674;-70
2022/01/26 12:50:41;;;;;;;108.93;33.47;;;;;;;2.06;83.17;102150.81;5045867;28;20210;-71
2022/01/26 12:53:08;;;;;;;112.90;33.57;;;;;;;2.09;82.23;102145.53;5044613;28;20217;-71
2022/01/26 12:55:37;;;;;;;109.90;33.10;;;;;;;2.13;82.52;102142.91;5038837;28;20205;-71
2022/01/26 12:58:04;;;;;;;96.20;31.43;;;;;;;2.15;82.55;102139.34;5044709;28;20206;-71
2022/01/26 13:00:42;;;;;;;105.57;33.43;;;;;;;2.15;82.65;102136.72;5051942;28;20619;-72